Time;durP1;ratioP1;P1;durP2;ratioP2;P2;SDS_P1;SDS_P2;PMS_P1;PMS_P2;Temp;Humidity;BMP_temperature;BMP_pressure;BME280_temperature;BME280_humidity;BME280_pressure;Samples;Min_cycle;Max_cycle;Signal;HPM_P1;HPM_P2
2023/03/18 06:02:38;;;;;;;23.77;21.88;;;11.50;99.90;;;;;;6126061;22;20023;31
2023/03/18 06:05:11;;;;;;;23.73;21.73;;;12.90;99.90;;;;;;6019453;23;20105;-91
2023/03/18 06:07:38;;;;;;;24.60;22.60;;;13.20;99.90;;;;;;6040987;23;20011;-93
2023/03/18 06:10:06;;;;;;;23.83;22.13;;;14.10;99.90;;;;;;6017254;23;20031;-93
2023/03/18 06:12:33;;;;;;;24.60;22.45;;;14.50;99.90;;;;;;6069594;23;20297;-91
2023/03/18 06:14:59;;;;;;;24.83;22.77;;;14.40;99.90;;;;;;6045531;23;20022;-93
2023/03/18 06:17:26;;;;;;;24.45;22.42;;;14.40;99.90;;;;;;6045390;23;20034;-94
2023/03/18 06:19:55;;;;;;;24.02;22.27;;;14.30;99.90;;;;;;6046317;23;20044;-93
2023/03/18 06:22:22;;;;;;;24.15;22.55;;;14.50;99.90;;;;;;6045543;23;20018;-92
2023/03/18 06:24:49;;;;;;;24.42;22.73;;;14.30;99.90;;;;;;6045563;23;20009;-91
2023/03/18 06:27:18;;;;;;;23.80;22.02;;;14.20;99.90;;;;;;6045760;23;20085;-94
2023/03/18 06:29:51;;;;;;;24.48;22.58;;;14.40;99.90;;;;;;6070270;23;20006;-92
2023/03/18 06:32:21;;;;;;;23.80;22.08;;;14.50;99.90;;;;;;6069012;23;20041;-93
2023/03/18 06:34:48;;;;;;;23.90;22.35;;;14.70;99.90;;;;;;6045462;23;20022;-94
2023/03/18 06:37:16;;;;;;;23.98;22.38;;;14.80;99.90;;;;;;6068970;23;20034;-93
2023/03/18 06:39:44;;;;;;;24.98;22.90;;;14.70;99.90;;;;;;6058628;23;20435;-93
2023/03/18 06:42:13;;;;;;;24.60;22.70;;;14.40;99.90;;;;;;6047068;23;20030;-93
2023/03/18 06:44:58;;;;;;;24.13;22.08;;;14.40;99.90;;;;;;6048134;23;20011;-94
2023/03/18 06:47:39;;;;;;;23.58;21.88;;;14.70;99.90;;;;;;6047988;23;20006;-94
2023/03/18 06:50:10;;;;;;;24.42;22.45;;;14.90;99.90;;;;;;6065502;23;20014;-94
2023/03/18 06:52:41;;;;;;;24.88;22.92;;;14.90;99.90;;;;;;6069501;23;20010;-94
2023/03/18 06:55:29;;;;;;;24.42;22.52;;;15.10;99.90;;;;;;6047772;23;20010;-93
2023/03/18 06:57:57;;;;;;;23.35;21.75;;;15.40;99.90;;;;;;6045924;23;20455;-93
2023/03/18 07:00:32;;;;;;;24.95;23.25;;;15.80;99.90;;;;;;6046981;23;20007;-94
2023/03/18 07:03:03;;;;;;;24.13;22.50;;;16.50;99.90;;;;;;6048940;23;20019;-92
2023/03/18 07:05:31;;;;;;;24.35;22.55;;;16.20;99.90;;;;;;6069276;23;20056;-94
2023/03/18 07:07:58;;;;;;;23.98;22.17;;;16.20;99.90;;;;;;6069355;23;20103;-94
2023/03/18 07:10:28;;;;;;;24.05;22.23;;;16.10;99.90;;;;;;6068850;23;20317;-95
2023/03/18 07:13:03;;;;;;;23.27;21.40;;;15.80;99.90;;;;;;6070570;23;20014;-94
2023/03/18 07:15:31;;;;;;;24.27;22.48;;;15.80;99.90;;;;;;6069112;23;20006;-94
2023/03/18 07:18:02;;;;;;;24.10;22.42;;;15.80;99.90;;;;;;6069792;23;20014;-94
2023/03/18 07:20:33;;;;;;;24.40;22.52;;;16.40;99.90;;;;;;6069220;23;20011;-96
2023/03/18 07:23:00;;;;;;;24.42;22.67;;;16.60;99.90;;;;;;6069312;23;20348;-93
2023/03/18 07:25:28;;;;;;;22.80;21.30;;;16.30;99.90;;;;;;6068956;23;20007;-94
2023/03/18 07:27:59;;;;;;;24.15;22.48;;;16.00;99.90;;;;;;6069266;23;20021;-94
2023/03/18 07:30:27;;;;;;;24.02;22.08;;;15.70;99.90;;;;;;6068990;23;20007;-94
2023/03/18 07:32:54;;;;;;;24.00;22.38;;;15.70;99.90;;;;;;6069032;23;20022;-93
2023/03/18 07:35:22;;;;;;;24.08;22.48;;;15.60;99.90;;;;;;6071427;23;20035;-93
2023/03/18 07:37:49;;;;;;;24.40;22.40;;;15.90;99.90;;;;;;6075852;23;20007;-92
2023/03/18 07:40:16;;;;;;;23.50;21.88;;;16.70;99.90;;;;;;6075253;23;20010;-93
2023/03/18 07:42:43;;;;;;;24.08;22.02;;;16.60;99.90;;;;;;6069536;23;20492;-93
2023/03/18 07:45:10;;;;;;;23.13;21.25;;;16.50;99.90;;;;;;6069096;23;20340;-93
2023/03/18 07:47:37;;;;;;;23.05;21.52;;;16.70;99.90;;;;;;6068638;23;20493;-93
2023/03/18 07:50:04;;;;;;;22.73;21.20;;;16.90;99.90;;;;;;6069304;23;20040;-94
2023/03/18 07:53:00;;;;;;;22.75;21.25;;;17.00;99.90;;;;;;6072598;23;20015;-94
2023/03/18 07:55:27;;;;;;;22.85;21.08;;;16.90;99.90;;;;;;6126890;22;20019;-93
2023/03/18 08:11:11;;;;;;;22.90;21.33;;;18.30;99.90;;;;;;6206731;22;20052;-92
2023/03/18 08:13:41;;;;;;;22.48;20.98;;;18.20;99.90;;;;;;6259866;22;20015;-92
2023/03/18 08:16:08;;;;;;;22.08;20.63;;;18.00;99.90;;;;;;6226038;22;20102;-86
2023/03/18 08:18:34;;;;;;;22.75;21.35;;;18.40;99.90;;;;;;6310206;22;20008;-86
2023/03/18 08:21:00;;;;;;;21.80;20.60;;;18.00;99.90;;;;;;6309873;22;20015;-87
2023/03/18 08:23:27;;;;;;;22.50;20.92;;;17.90;99.90;;;;;;6259872;22;20437;-83
2023/03/18 08:25:53;;;;;;;22.42;20.80;;;17.90;99.90;;;;;;6288856;22;20014;-85
2023/03/18 08:28:19;;;;;;;22.58;21.00;;;18.10;99.90;;;;;;6227153;22;20004;-85
2023/03/18 08:30:46;;;;;;;21.80;20.38;;;17.90;99.90;;;;;;6226845;22;20378;-85
2023/03/18 08:33:12;;;;;;;22.60;21.05;;;17.30;99.90;;;;;;6226874;22;20011;-83
2023/03/18 08:35:41;;;;;;;21.63;20.42;;;17.10;99.90;;;;;;6252160;22;20004;-84
2023/03/18 08:38:08;;;;;;;21.90;20.50;;;17.00;99.90;;;;;;6226574;22;20429;-85
2023/03/18 08:40:35;;;;;;;22.58;21.17;;;17.10;99.90;;;;;;6226919;22;20429;-85
2023/03/18 08:43:06;;;;;;;23.08;21.42;;;16.70;99.90;;;;;;6226732;22;20000;-85
2023/03/18 10:52:29;;;;;;;23.10;21.70;;;17.50;99.90;;;;;;6277946;22;20102;-91
2023/03/18 10:54:56;;;;;;;22.88;21.38;;;17.80;99.90;;;;;;6256612;22;20043;-93
2023/03/18 10:57:22;;;;;;;23.08;21.67;;;17.80;99.90;;;;;;6256955;22;20008;-95
2023/03/18 10:59:50;;;;;;;23.48;22.00;;;17.60;99.90;;;;;;6256518;22;20078;-92
2023/03/18 11:02:32;;;;;;;23.67;22.27;;;17.40;99.90;;;;;;6250970;22;20432;-91
2023/03/18 11:05:10;;;;;;;23.17;21.77;;;17.40;99.90;;;;;;6276860;22;20008;-93
2023/03/18 11:08:04;;;;;;;23.60;22.20;;;17.40;99.90;;;;;;6251073;22;20012;-93
2023/03/18 11:10:48;;;;;;;21.90;20.50;;;17.20;99.90;;;;;;6276705;22;20019;-91
2023/03/18 11:13:19;;;;;;;;;;;17.30;99.90;;;;;;6251274;22;20046;-93
2023/03/18 11:15:55;;;;;;;23.38;21.77;;;17.20;99.90;;;;;;6225669;22;19903;-91
2023/03/18 11:18:24;;;;;;;23.90;22.35;;;17.20;99.90;;;;;;6250873;22;20091;-93
2023/03/18 11:20:59;;;;;;;23.65;22.15;;;17.00;99.90;;;;;;6250730;22;20433;-92
2023/03/18 11:26:52;;;;;;;23.55;22.05;;;16.90;99.90;;;;;;6184812;23;20063;-92
2023/03/18 11:29:25;;;;;;;24.35;22.45;;;17.00;99.90;;;;;;6159663;23;20394;-92
2023/03/18 11:31:57;;;;;;;23.35;22.00;;;17.40;99.90;;;;;;6159692;23;20005;-91
2023/03/18 11:34:25;;;;;;;23.45;21.95;;;17.50;99.90;;;;;;6159584;23;20021;-92
2023/03/18 11:36:57;;;;;;;22.90;21.60;;;17.10;99.90;;;;;;6159765;23;20005;-92
2023/03/18 11:39:26;;;;;;;23.15;21.77;;;16.80;99.90;;;;;;6159991;23;20013;-91
2023/03/18 11:41:52;;;;;;;23.02;21.63;;;16.60;99.90;;;;;;6160271;23;20033;-93
2023/03/18 11:44:28;;;;;;;24.52;22.77;;;16.70;99.90;;;;;;6159638;23;20009;-91
2023/03/18 11:47:02;;;;;;;23.98;22.23;;;17.10;99.90;;;;;;6159814;23;20056;-94
2023/03/18 11:49:30;;;;;;;23.00;21.60;;;17.00;99.90;;;;;;6184304;23;20023;-92
2023/03/18 11:52:05;;;;;;;23.08;21.58;;;17.10;99.90;;;;;;6159687;23;20264;-94
2023/03/18 11:54:44;;;;;;;23.08;21.30;;;17.30;99.90;;;;;;6159681;23;20021;-94
2023/03/18 11:57:26;;;;;;;23.73;21.95;;;17.50;99.90;;;;;;6185976;23;20009;-93
2023/03/18 12:00:21;;;;;;;22.90;21.45;;;17.60;99.90;;;;;;6187981;23;20005;-94
2023/03/18 12:03:05;;;;;;;;;;;17.60;99.90;;;;;;6213964;22;20010;-96
2023/03/18 12:06:05;;;;;;;24.20;22.42;;;17.60;99.90;;;;;;6228367;22;20328;-92
2023/03/18 12:08:50;;;;;;;24.30;22.58;;;17.60;99.90;;;;;;6278126;22;20015;-93
2023/03/18 12:11:54;;;;;;;23.45;22.05;;;17.40;99.90;;;;;;6278084;22;20077;-94
2023/03/18 12:14:33;;;;;;;24.00;22.50;;;17.40;99.90;;;;;;6278031;22;20349;-93
2023/03/18 12:17:24;;;;;;;23.55;21.98;;;17.20;99.90;;;;;;6252782;22;20250;-94
2023/03/18 12:20:15;;;;;;;23.92;22.42;;;17.30;99.90;;;;;;6278207;22;20004;-95
2023/03/18 12:23:03;;;;;;;23.95;22.23;;;17.50;99.90;;;;;;6277778;22;20004;-93
2023/03/18 12:25:52;;;;;;;24.25;22.40;;;17.60;99.90;;;;;;6278163;22;20007;-94
2023/03/18 12:28:31;;;;;;;24.40;22.50;;;17.80;99.90;;;;;;6252331;22;20034;-92
2023/03/18 12:31:04;;;;;;;23.67;22.27;;;17.40;99.90;;;;;;6252380;22;20034;-92
2023/03/18 12:33:50;;;;;;;23.50;22.00;;;17.20;99.90;;;;;;6277826;22;20020;-94
2023/03/18 12:36:41;;;;;;;23.65;21.98;;;17.40;99.90;;;;;;6277977;22;20071;-95
2023/03/18 12:39:26;;;;;;;23.45;21.83;;;17.80;99.90;;;;;;6252752;22;20011;-92
2023/03/18 12:42:05;;;;;;;23.40;21.90;;;18.10;99.90;;;;;;6277804;22;20333;-94
2023/03/18 12:44:32;;;;;;;23.23;21.70;;;18.00;99.90;;;;;;6277734;22;20007;-93
2023/03/18 12:47:35;;;;;;;23.35;21.88;;;17.90;99.90;;;;;;6277661;22;20011;-93
2023/03/18 12:50:37;;;;;;;24.13;22.35;;;18.00;99.90;;;;;;6277794;22;20087;-93
2023/03/18 12:53:27;;;;;;;24.83;23.15;;;18.10;99.90;;;;;;6221921;23;20015;-93
2023/03/18 12:56:00;;;;;;;24.70;22.80;;;18.00;99.90;;;;;;6247218;23;20004;-94
2023/03/18 12:58:36;;;;;;;24.33;22.70;;;18.00;99.90;;;;;;6247140;23;20433;-94
2023/03/18 13:01:32;;;;;;;24.02;22.40;;;17.80;99.90;;;;;;6247745;23;20012;-92
2023/03/18 13:04:04;;;;;;;24.05;22.58;;;17.70;99.90;;;;;;6221916;23;20085;-92
2023/03/18 13:07:13;;;;;;;24.17;22.48;;;17.70;99.90;;;;;;6221775;23;20072;-92
2023/03/18 13:09:45;;;;;;;23.75;22.15;;;17.70;99.90;;;;;;6246517;23;20344;-91
2023/03/18 13:12:12;;;;;;;24.08;22.55;;;17.80;99.90;;;;;;6196677;23;20015;-89
2023/03/18 13:14:57;;;;;;;23.65;22.08;;;17.90;99.90;;;;;;6196395;23;20097;-92
2023/03/18 13:17:30;;;;;;;23.92;22.42;;;17.80;99.90;;;;;;6246870;23;20011;-90
2023/03/18 13:20:01;;;;;;;23.85;22.13;;;17.70;99.90;;;;;;6247143;23;20077;-91
2023/03/18 13:22:42;;;;;;;23.75;22.20;;;17.70;99.90;;;;;;6221933;22;20008;-93
2023/03/18 13:25:35;;;;;;;24.00;22.42;;;17.80;99.90;;;;;;6196583;23;20511;-91
2023/03/18 13:28:24;;;;;;;23.60;22.20;;;17.80;99.90;;;;;;6246946;23;20441;-91
2023/03/18 13:31:06;;;;;;;24.30;22.52;;;17.90;99.90;;;;;;6247097;23;20015;-92
2023/03/18 13:33:56;;;;;;;24.02;22.13;;;17.90;99.90;;;;;;6196262;23;20091;-90
2023/03/18 13:36:38;;;;;;;23.30;21.80;;;17.80;99.90;;;;;;6246630;23;20101;-90
2023/03/18 13:39:11;;;;;;;23.42;21.95;;;17.90;99.90;;;;;;6196609;23;20012;-90
2023/03/18 13:42:18;;;;;;;23.02;21.63;;;17.80;99.90;;;;;;6196593;23;20045;-93
2023/03/18 13:44:54;;;;;;;23.52;22.02;;;17.40;99.90;;;;;;6201916;23;20008;-91
2023/03/18 13:47:22;;;;;;;23.55;21.92;;;17.40;99.90;;;;;;6199979;23;20008;-91
2023/03/18 13:49:58;;;;;;;23.05;21.63;;;17.50;99.90;;;;;;6223239;23;19996;-92
2023/03/18 13:52:41;;;;;;;23.30;21.60;;;17.30;99.90;;;;;;6243364;23;20016;-93
2023/03/18 13:55:38;;;;;;;23.95;22.25;;;17.40;99.90;;;;;;6246362;22;20438;-93
2023/03/18 13:58:16;;;;;;;23.30;21.73;;;17.40;99.90;;;;;;6196493;23;20008;-92
2023/03/18 14:00:45;;;;;;;23.15;21.50;;;17.50;99.90;;;;;;6196224;23;20092;-95
2023/03/18 14:03:50;;;;;;;23.55;22.05;;;17.60;99.90;;;;;;6246250;23;20070;-94
2023/03/18 14:06:35;;;;;;;23.88;22.27;;;17.60;99.90;;;;;;6221292;23;20402;-93
2023/03/18 14:09:22;;;;;;;23.10;21.70;;;17.50;99.90;;;;;;6196127;23;20012;-93
2023/03/18 14:11:51;;;;;;;23.67;22.02;;;17.50;99.90;;;;;;6246346;23;20381;-94
2023/03/18 14:14:41;;;;;;;22.98;21.58;;;17.40;99.90;;;;;;6220926;23;20385;-94
2023/03/18 14:17:16;;;;;;;24.00;22.30;;;17.20;99.90;;;;;;6221052;23;20083;-95
2023/03/18 14:19:44;;;;;;;22.95;21.55;;;17.30;99.90;;;;;;6221128;23;20081;-92
2023/03/18 14:22:34;;;;;;;23.00;21.60;;;17.10;99.90;;;;;;6220799;23;20038;-93
2023/03/18 14:25:13;;;;;;;22.38;20.98;;;17.10;99.90;;;;;;6245936;22;20094;-94
2023/03/18 14:27:47;;;;;;;21.30;19.83;;;17.20;99.90;;;;;;6195944;23;20008;-94
2023/03/18 14:30:43;;;;;;;21.23;19.83;;;16.80;99.90;;;;;;6221177;23;20012;-93
2023/03/18 14:33:21;;;;;;;20.98;19.42;;;16.60;99.90;;;;;;6221079;23;20012;-94
2023/03/18 14:42:47;;;;;;;20.93;19.20;;;17.10;99.90;;;;;;6250115;23;20091;-94
2023/03/18 14:47:51;;;;;;;19.83;18.52;;;16.40;99.90;;;;;;6284812;22;20387;-94
2023/03/18 14:55:45;;;;;;;20.42;19.13;;;15.80;99.90;;;;;;6152917;23;20032;-94
2023/03/18 14:58:18;;;;;;;19.80;18.60;;;15.70;99.90;;;;;;6109191;23;20037;-90
2023/03/18 15:01:03;;;;;;;19.77;18.48;;;15.70;99.90;;;;;;6105326;23;20500;-90
2023/03/18 15:03:31;;;;;;;20.00;18.80;;;15.60;99.90;;;;;;6109319;23;20010;-91
2023/03/18 15:06:01;;;;;;;19.13;17.92;;;15.80;99.90;;;;;;6101127;23;20002;-89
2023/03/18 15:08:31;;;;;;;19.70;18.40;;;15.70;99.90;;;;;;6123779;23;20122;-91
2023/03/18 15:10:59;;;;;;;21.40;19.67;;;15.60;99.90;;;;;;6124212;23;20045;-87
2023/03/18 15:13:28;;;;;;;20.17;18.77;;;15.50;99.90;;;;;;6125141;23;20089;-89
2023/03/18 15:15:56;;;;;;;19.55;18.23;;;15.50;99.90;;;;;;6124316;23;20006;-89
2023/03/18 15:18:25;;;;;;;19.30;18.10;;;15.40;99.90;;;;;;6124429;23;20041;-91
2023/03/18 15:20:56;;;;;;;19.80;18.40;;;15.40;99.90;;;;;;6100286;23;20140;-89
2023/03/18 15:23:54;;;;;;;19.77;18.42;;;15.40;99.90;;;;;;6124490;23;20037;-88
2023/03/18 15:26:26;;;;;;;19.77;18.38;;;15.30;99.90;;;;;;6033015;23;20024;-89
2023/03/18 15:29:12;;;;;;;19.30;18.02;;;15.30;99.90;;;;;;6156945;23;20005;-90
2023/03/18 15:31:43;;;;;;;19.95;18.65;;;15.30;99.90;;;;;;6157948;23;20096;-93
2023/03/18 15:34:30;;;;;;;19.80;18.48;;;15.20;99.90;;;;;;6251024;22;20023;-92
2023/03/18 15:37:00;;;;;;;20.10;18.52;;;15.20;99.90;;;;;;6278492;22;20026;-89
2023/03/18 15:39:37;;;;;;;19.20;17.80;;;15.00;99.90;;;;;;6259086;22;20015;-91
2023/03/18 15:42:20;;;;;;;19.60;18.20;;;15.00;99.90;;;;;;6258455;22;20011;-90
2023/03/18 15:44:59;;;;;;;22.38;20.08;;;14.70;99.90;;;;;;6260858;22;20003;-91
2023/03/18 15:47:29;;;;;;;19.15;17.63;;;14.60;99.90;;;;;;6289283;22;20014;-91
2023/03/18 15:49:59;;;;;;;19.30;17.92;;;14.50;99.90;;;;;;6289087;22;20029;-90
2023/03/18 20:10:10;;;;;;;49.45;39.70;;;9.90;99.90;;;;;;6225473;22;20098;-91
2023/03/18 21:05:39;;;;;;;52.40;35.55;;;9.00;99.90;;;;;;6109730;22;20025;31
2023/03/18 22:14:47;;;;;;;60.65;38.83;;;7.60;99.90;;;;;;6232291;22;20091;-93
2023/03/18 22:38:15;;;;;;;;;;;;;;;;;;;;;
2023/03/18 23:57:01;;;;;;;60.75;38.65;;;6.70;99.90;;;;;;6196634;22;20021;-94
2023/03/18 23:59:29;;;;;;;58.40;35.95;;;6.90;99.90;;;;;;6261425;22;20506;-95
